createdAt,value
2023-02-08T00:01:07.227Z,-1.10
2023-02-08T00:06:08.422Z,-1.15
2023-02-08T00:11:12.575Z,-0.88
2023-02-08T00:16:13.953Z,-1.04
2023-02-08T00:21:15.221Z,-1.25
2023-02-08T00:26:16.539Z,-1.34
2023-02-08T00:31:17.904Z,-1.33
2023-02-08T00:36:19.136Z,-1.30
2023-02-08T00:41:20.352Z,-1.27
2023-02-08T00:46:21.654Z,-1.24
2023-02-08T00:51:22.946Z,-1.15
2023-02-08T00:56:24.164Z,-1.14
2023-02-08T01:01:25.399Z,-1.12
2023-02-08T01:06:26.641Z,-1.07
2023-02-08T01:11:27.893Z,-0.98
2023-02-08T01:16:29.145Z,-0.97
2023-02-08T01:21:30.394Z,-1.05
2023-02-08T01:26:31.688Z,-1.06
2023-02-08T01:31:32.958Z,-1.02
2023-02-08T01:36:35.276Z,-0.99
2023-02-08T01:41:36.552Z,-0.97
2023-02-08T01:46:37.829Z,-1.05
2023-02-08T01:51:39.063Z,-1.22
2023-02-08T01:56:41.107Z,-1.16
2023-02-08T02:01:42.331Z,-1.20
2023-02-08T02:06:43.502Z,-1.35
2023-02-08T02:11:44.664Z,-1.46
2023-02-08T02:16:45.878Z,-1.54
2023-02-08T02:21:47.238Z,-1.53
2023-02-08T02:26:48.444Z,-1.47
2023-02-08T02:31:49.680Z,-1.47
2023-02-08T02:36:50.993Z,-1.54
2023-02-08T02:42:10.954Z,-1.57
2023-02-08T02:47:12.173Z,-1.60
2023-02-08T02:52:13.356Z,-1.65
2023-02-08T02:57:14.515Z,-1.66
2023-02-08T03:02:15.816Z,-1.51
2023-02-08T03:07:17.072Z,-1.26
2023-02-08T03:12:18.539Z,-1.22
2023-02-08T03:17:19.833Z,-1.35
2023-02-08T03:22:21.080Z,-1.58
2023-02-08T03:27:22.636Z,-1.76
2023-02-08T03:32:23.870Z,-1.88
2023-02-08T03:37:25.056Z,-1.96
2023-02-08T03:42:26.271Z,-1.91
2023-02-08T03:47:27.438Z,-1.84
2023-02-08T03:52:28.687Z,-1.99
2023-02-08T03:57:29.930Z,-1.78
2023-02-08T04:02:31.220Z,-1.82
2023-02-08T04:07:32.441Z,-1.77
2023-02-08T04:12:33.737Z,-1.81
2023-02-08T04:17:34.948Z,-1.82
2023-02-08T04:22:36.137Z,-1.89
2023-02-08T04:27:37.895Z,-1.95
2023-02-08T04:32:39.084Z,-1.99
2023-02-08T04:37:40.324Z,-2.09
2023-02-08T04:42:41.550Z,-2.20
2023-02-08T04:47:42.743Z,-2.22
2023-02-08T04:52:43.919Z,-2.20
2023-02-08T04:57:45.111Z,-2.27
2023-02-08T05:02:46.351Z,-2.34
2023-02-08T05:07:47.620Z,-2.37
2023-02-08T05:12:48.823Z,-2.36
2023-02-08T05:17:49.993Z,-2.37
2023-02-08T05:22:51.142Z,-2.36
2023-02-08T05:27:52.375Z,-2.33
2023-02-08T05:32:53.628Z,-2.33
2023-02-08T05:37:54.815Z,-2.39
2023-02-08T05:42:55.971Z,-2.42
2023-02-08T05:47:57.230Z,-2.53
2023-02-08T05:52:58.433Z,-2.60
2023-02-08T05:57:59.646Z,-2.50
2023-02-08T06:03:00.896Z,-2.57
2023-02-08T06:08:02.083Z,-2.61
2023-02-08T06:13:03.368Z,-2.54
2023-02-08T06:18:04.560Z,-2.58
2023-02-08T06:23:05.825Z,-2.56
2023-02-08T06:28:10.571Z,-2.50
2023-02-08T06:33:13.396Z,-2.37
2023-02-08T06:38:15.714Z,-2.35
2023-02-08T06:43:16.900Z,-2.43
2023-02-08T06:48:18.108Z,-2.49
2023-02-08T06:53:19.342Z,-2.64
2023-02-08T06:58:20.559Z,-2.68
2023-02-08T07:03:22.670Z,-2.73
2023-02-08T07:08:23.867Z,-2.78
2023-02-08T07:13:25.039Z,-2.82
2023-02-08T07:18:26.476Z,-2.80
2023-02-08T07:23:27.659Z,-2.76
2023-02-08T07:28:29.165Z,-2.74
2023-02-08T07:33:30.372Z,-2.72
2023-02-08T07:38:31.611Z,-2.61
2023-02-08T07:43:32.811Z,-2.36
2023-02-08T07:48:34.092Z,-2.30
2023-02-08T07:53:35.259Z,-2.36
2023-02-08T07:58:36.490Z,-2.31
2023-02-08T08:03:37.700Z,-2.15
2023-02-08T08:08:39.711Z,-1.86
2023-02-08T08:13:40.914Z,-1.63
2023-02-08T08:18:42.087Z,-1.52
2023-02-08T08:23:43.310Z,-1.47
2023-02-08T08:28:46.489Z,-1.30
2023-02-08T08:33:47.730Z,-1.20
2023-02-08T08:38:48.951Z,-0.99
2023-02-08T08:43:50.193Z,-0.76
2023-02-08T08:48:52.042Z,-0.53
2023-02-08T08:53:53.315Z,-0.29
2023-02-08T08:58:54.570Z,-0.07
2023-02-08T09:03:55.759Z,0.16
2023-02-08T09:08:56.914Z,0.47
2023-02-08T09:13:58.252Z,0.90
2023-02-08T09:18:59.405Z,1.50
2023-02-08T09:24:00.604Z,2.16
2023-02-08T09:29:01.848Z,2.72
2023-02-08T09:34:03.063Z,3.31
2023-02-08T09:39:04.230Z,3.86
2023-02-08T09:44:05.419Z,4.29
2023-02-08T09:49:08.349Z,4.50
2023-02-08T09:54:09.601Z,4.68
2023-02-08T09:59:10.768Z,4.94
2023-02-08T10:04:12.015Z,5.14
2023-02-08T10:09:14.424Z,5.54
2023-02-08T10:14:15.692Z,6.05
2023-02-08T10:19:16.922Z,6.23
2023-02-08T10:24:18.178Z,6.97
2023-02-08T10:29:19.395Z,7.87
2023-02-08T10:34:20.803Z,8.92
2023-02-08T10:39:31.401Z,9.59
2023-02-08T10:44:33.950Z,9.75
2023-02-08T10:49:37.553Z,9.65
2023-02-08T10:54:39.957Z,9.65
2023-02-08T10:59:48.056Z,9.36
2023-02-08T11:04:51.323Z,9.15
2023-02-08T11:09:58.646Z,9.16
2023-02-08T11:15:05.944Z,9.11
2023-02-08T11:20:07.300Z,9.22
2023-02-08T11:25:08.802Z,9.14
2023-02-08T11:30:12.094Z,9.14
2023-02-08T11:35:14.985Z,9.19
2023-02-08T11:40:21.100Z,9.19
2023-02-08T11:45:25.009Z,9.29
2023-02-08T11:50:26.227Z,9.48
2023-02-08T11:55:27.878Z,9.16
2023-02-08T12:00:29.059Z,9.23
2023-02-08T12:05:30.337Z,9.26
2023-02-08T12:10:31.594Z,9.25
2023-02-08T12:15:32.895Z,9.27
2023-02-08T12:20:34.207Z,9.05
2023-02-08T12:25:35.389Z,9.07
2023-02-08T12:30:36.602Z,9.10
2023-02-08T12:35:48.069Z,9.19
2023-02-08T12:40:55.300Z,9.25
2023-02-08T12:45:56.742Z,8.97
2023-02-08T12:50:57.914Z,9.12
2023-02-08T12:55:59.151Z,9.47
2023-02-08T13:01:00.919Z,9.85
2023-02-08T13:06:03.123Z,9.93
2023-02-08T13:11:18.805Z,10.07
2023-02-08T13:16:20.539Z,10.04
2023-02-08T13:21:21.744Z,10.14
2023-02-08T13:26:27.690Z,10.21
2023-02-08T13:31:29.117Z,9.98
2023-02-08T13:36:30.427Z,9.92
2023-02-08T13:41:31.765Z,9.80
2023-02-08T13:46:32.999Z,9.78
2023-02-08T13:51:34.281Z,9.70
2023-02-08T13:56:35.551Z,9.75
2023-02-08T14:01:36.895Z,9.66
2023-02-08T14:06:38.121Z,9.59
2023-02-08T14:11:39.343Z,9.45
2023-02-08T14:16:40.535Z,9.13
2023-02-08T14:21:41.692Z,9.15
2023-02-08T14:26:42.914Z,9.17
2023-02-08T14:31:44.252Z,9.10
2023-02-08T14:36:45.466Z,9.04
2023-02-08T14:41:46.698Z,8.93
2023-02-08T14:46:47.936Z,8.72
2023-02-08T14:51:49.209Z,8.61
2023-02-08T14:56:50.380Z,8.42
2023-02-08T15:01:53.473Z,8.27
2023-02-08T15:06:56.186Z,8.06
2023-02-08T15:11:58.859Z,7.85
2023-02-08T15:17:00.091Z,7.70
2023-02-08T15:22:01.282Z,7.63
2023-02-08T15:27:02.458Z,7.56
2023-02-08T15:32:03.841Z,7.37
2023-02-08T15:37:05.147Z,7.20
2023-02-08T15:42:06.373Z,7.05
2023-02-08T15:47:07.639Z,6.94
2023-02-08T15:52:09.014Z,6.81
2023-02-08T15:57:10.372Z,6.67
2023-02-08T16:02:11.611Z,6.50
2023-02-08T16:07:12.831Z,6.27
2023-02-08T16:12:14.052Z,6.02
2023-02-08T16:17:15.227Z,5.86
2023-02-08T16:22:16.715Z,5.64
2023-02-08T16:27:17.910Z,5.45
2023-02-08T16:32:19.146Z,5.22
2023-02-08T16:37:20.478Z,4.96
2023-02-08T16:42:21.792Z,4.88
2023-02-08T16:47:23.108Z,4.73
2023-02-08T16:52:24.317Z,4.52
2023-02-08T16:57:25.506Z,4.31
2023-02-08T17:02:26.711Z,4.13
2023-02-08T17:07:31.975Z,3.80
2023-02-08T17:12:33.325Z,3.56
2023-02-08T17:17:34.589Z,3.32
2023-02-08T17:22:38.756Z,3.16
2023-02-08T17:27:40.225Z,3.10
2023-02-08T17:32:41.568Z,2.98
2023-02-08T17:37:42.735Z,2.87
2023-02-08T17:42:43.933Z,2.45
2023-02-08T17:47:45.214Z,2.64
2023-02-08T17:52:46.392Z,2.53
2023-02-08T17:57:47.696Z,2.38
2023-02-08T18:02:48.912Z,2.11
2023-02-08T18:07:50.176Z,2.01
2023-02-08T18:12:51.341Z,1.84
2023-02-08T18:17:52.562Z,1.76
2023-02-08T18:22:53.775Z,1.71
2023-02-08T18:27:55.028Z,1.77
2023-02-08T18:32:56.267Z,1.78
2023-02-08T18:37:57.557Z,1.74
2023-02-08T18:42:58.731Z,1.72
2023-02-08T18:48:00.125Z,1.63
2023-02-08T18:53:01.317Z,1.58
2023-02-08T18:58:02.535Z,1.53
2023-02-08T19:03:03.690Z,1.46
2023-02-08T19:08:04.885Z,1.33
2023-02-08T19:13:07.619Z,1.27
2023-02-08T19:18:08.911Z,1.20
2023-02-08T19:23:10.114Z,1.20
2023-02-08T19:28:11.433Z,1.15
2023-02-08T19:33:12.666Z,1.13
2023-02-08T19:38:13.903Z,1.03
2023-02-08T19:43:15.090Z,1.00
2023-02-08T19:48:16.266Z,1.00
2023-02-08T19:53:17.472Z,0.96
2023-02-08T19:58:18.660Z,0.92
2023-02-08T20:03:22.176Z,0.80
2023-02-08T20:08:27.347Z,0.77
2023-02-08T20:13:28.765Z,0.77
2023-02-08T20:18:29.918Z,0.76
2023-02-08T20:23:31.096Z,0.75
2023-02-08T20:28:32.324Z,0.69
2023-02-08T20:33:33.571Z,0.67
2023-02-08T20:38:35.082Z,0.65
2023-02-08T20:43:36.322Z,0.56
2023-02-08T20:48:37.480Z,0.55
2023-02-08T20:53:38.740Z,0.46
2023-02-08T20:58:39.939Z,0.35
2023-02-08T21:03:41.108Z,0.27
2023-02-08T21:08:42.340Z,0.15
2023-02-08T21:13:43.527Z,0.04
2023-02-08T21:18:45.589Z,-0.02
2023-02-08T21:23:46.787Z,-0.09
2023-02-08T21:28:48.163Z,-0.24
2023-02-08T21:33:49.624Z,-0.33
2023-02-08T21:38:50.872Z,-0.49
2023-02-08T21:43:52.089Z,-0.59
2023-02-08T21:49:12.037Z,-0.66
2023-02-08T21:54:31.999Z,-0.69
2023-02-08T21:59:37.008Z,-0.68
2023-02-08T22:04:57.234Z,-0.77
2023-02-08T22:09:58.547Z,-0.80
2023-02-08T22:14:59.790Z,-0.79
2023-02-08T22:20:00.980Z,-0.83
2023-02-08T22:25:02.317Z,-0.81
2023-02-08T22:30:03.545Z,-0.84
2023-02-08T22:35:04.713Z,-0.72
2023-02-08T22:40:05.952Z,-0.70
2023-02-08T22:45:07.274Z,-0.77
2023-02-08T22:50:08.488Z,-0.80
2023-02-08T22:55:09.782Z,-0.87
2023-02-08T23:00:10.996Z,-0.95
2023-02-08T23:05:12.257Z,-1.03
2023-02-08T23:10:13.508Z,-1.01
2023-02-08T23:15:14.759Z,-1.05
2023-02-08T23:20:16.002Z,-1.14
2023-02-08T23:25:17.874Z,-1.17
2023-02-08T23:30:19.054Z,-1.17
2023-02-08T23:35:20.301Z,-1.16
2023-02-08T23:40:21.551Z,-1.23
2023-02-08T23:45:22.891Z,-1.37
2023-02-08T23:50:24.119Z,-1.39
2023-02-08T23:55:25.328Z,-1.25
